createdAt,value
2023-04-02T00:00:05.822Z,75.30
2023-04-02T00:02:33.176Z,75.16
2023-04-02T00:05:16.609Z,75.25
2023-04-02T00:07:44.764Z,75.42
2023-04-02T00:10:36.982Z,75.51
2023-04-02T00:13:05.732Z,75.42
2023-04-02T00:15:33.096Z,75.51
2023-04-02T00:18:00.792Z,75.76
2023-04-02T00:20:30.976Z,75.80
2023-04-02T00:22:57.822Z,75.74
2023-04-02T00:25:28.406Z,75.67
2023-04-02T00:27:56.816Z,75.79
2023-04-02T00:30:23.751Z,75.65
2023-04-02T00:32:52.049Z,75.61
2023-04-02T00:35:28.618Z,75.69
2023-04-02T00:37:56.647Z,75.59
2023-04-02T00:40:29.370Z,75.63
2023-04-02T00:42:59.872Z,75.65
2023-04-02T00:45:30.019Z,75.79
2023-04-02T00:47:59.392Z,75.88
2023-04-02T00:50:39.493Z,75.87
2023-04-02T00:53:16.516Z,75.80
2023-04-02T00:55:44.064Z,75.93
2023-04-02T00:58:27.671Z,75.88
2023-04-02T01:00:54.892Z,75.87
2023-04-02T01:03:22.980Z,75.98
2023-04-02T01:05:56.262Z,76.29
2023-04-02T01:08:49.058Z,76.07
2023-04-02T01:11:28.643Z,76.27
2023-04-02T01:14:06.752Z,76.41
2023-04-02T01:17:00.671Z,76.45
2023-04-02T01:19:39.371Z,76.21
2023-04-02T01:22:18.939Z,76.31
2023-04-02T01:24:46.299Z,76.53
2023-04-02T01:27:25.021Z,76.41
2023-04-02T01:30:03.133Z,76.42
2023-04-02T01:32:31.446Z,76.23
2023-04-02T01:34:58.562Z,76.35
2023-04-02T01:37:47.115Z,76.39
2023-04-02T01:40:22.754Z,76.37
2023-04-02T01:43:19.976Z,76.26
2023-04-02T01:45:46.895Z,76.51
2023-04-02T01:48:24.822Z,76.17
2023-04-02T01:50:55.075Z,76.52
2023-04-02T01:53:24.871Z,76.32
2023-04-02T01:55:56.745Z,76.44
2023-04-02T01:58:26.461Z,76.62
2023-04-02T02:00:59.971Z,76.60
2023-04-02T02:03:26.669Z,76.37
2023-04-02T02:05:53.425Z,76.38
2023-04-02T02:08:31.906Z,76.35
2023-04-02T02:10:59.077Z,76.23
2023-04-02T02:13:25.771Z,76.07
2023-04-02T02:15:52.922Z,76.11
2023-04-02T02:18:23.570Z,76.12
2023-04-02T02:20:52.306Z,76.12
2023-04-02T02:23:20.353Z,75.99
2023-04-02T02:25:48.288Z,76.10
2023-04-02T02:28:26.637Z,75.98
2023-04-02T02:30:59.059Z,76.17
2023-04-02T02:33:42.620Z,76.16
2023-04-02T02:36:23.138Z,76.17
2023-04-02T02:39:11.034Z,76.20
2023-04-02T02:42:03.876Z,76.22
2023-04-02T02:44:35.482Z,76.05
2023-04-02T02:47:06.898Z,76.17
2023-04-02T02:49:41.047Z,76.23
2023-04-02T02:52:10.770Z,76.09
2023-04-02T02:54:43.335Z,75.99
2023-04-02T02:57:20.412Z,75.99
2023-04-02T02:59:47.755Z,75.88
2023-04-02T03:02:16.295Z,75.89
2023-04-02T03:04:47.750Z,75.95
2023-04-02T03:07:16.363Z,76.17
2023-04-02T03:09:54.745Z,76.14
2023-04-02T03:12:42.268Z,76.13
2023-04-02T03:15:21.290Z,76.14
2023-04-02T03:18:02.066Z,76.15
2023-04-02T03:20:37.599Z,76.04
2023-04-02T03:23:17.939Z,76.05
2023-04-02T03:26:31.438Z,76.17
2023-04-02T03:29:27.362Z,76.01
2023-04-02T03:32:28.638Z,76.09
2023-04-02T03:35:06.709Z,76.01
2023-04-02T03:37:42.271Z,76.11
2023-04-02T03:40:15.920Z,76.11
2023-04-02T03:42:49.421Z,76.02
2023-04-02T03:45:33.161Z,76.02
2023-04-02T03:47:59.866Z,76.05
2023-04-02T03:50:34.625Z,76.19
2023-04-02T03:53:03.615Z,76.14
2023-04-02T03:55:38.077Z,76.05
2023-04-02T03:58:23.153Z,76.15
2023-04-02T04:01:00.169Z,76.26
2023-04-02T04:03:38.905Z,76.13
2023-04-02T04:06:10.842Z,76.16
2023-04-02T04:08:44.904Z,76.12
2023-04-02T04:11:17.325Z,75.97
2023-04-02T04:13:56.372Z,75.85
2023-04-02T04:16:31.506Z,75.81
2023-04-02T04:19:14.881Z,75.91
2023-04-02T04:21:45.240Z,75.94
2023-04-02T04:24:28.540Z,75.94
2023-04-02T04:27:20.526Z,75.93
2023-04-02T04:29:56.352Z,75.80
2023-04-02T04:32:27.825Z,75.81
2023-04-02T04:35:01.110Z,75.75
2023-04-02T04:37:35.321Z,75.90
2023-04-02T04:40:11.994Z,75.83
2023-04-02T04:42:43.592Z,75.67
2023-04-02T04:45:28.697Z,75.72
2023-04-02T04:48:01.396Z,75.60
2023-04-02T04:50:38.562Z,75.67
2023-04-02T04:53:07.390Z,75.73
2023-04-02T04:55:44.332Z,75.75
2023-04-02T04:58:40.810Z,75.75
2023-04-02T05:01:10.553Z,75.71
2023-04-02T05:03:59.526Z,75.70
2023-04-02T05:06:37.036Z,75.69
2023-04-02T05:09:15.732Z,75.72
2023-04-02T05:11:47.264Z,75.61
2023-04-02T05:14:24.228Z,75.59
2023-04-02T05:17:02.454Z,75.48
2023-04-02T05:19:51.890Z,75.73
2023-04-02T05:22:35.636Z,75.23
2023-04-02T05:25:15.771Z,75.37
2023-04-02T05:27:53.094Z,75.26
2023-04-02T05:30:29.631Z,75.36
2023-04-02T05:33:23.476Z,75.31
2023-04-02T05:35:58.009Z,75.00
2023-04-02T05:38:28.395Z,75.13
2023-04-02T05:41:12.030Z,75.11
2023-04-02T05:43:44.171Z,75.19
2023-04-02T05:46:22.600Z,75.01
2023-04-02T05:48:55.372Z,75.04
2023-04-02T05:51:37.402Z,74.99
2023-04-02T05:54:06.684Z,75.02
2023-04-02T05:56:43.190Z,75.14
2023-04-02T05:59:21.768Z,75.25
2023-04-02T06:02:17.507Z,75.13
2023-04-02T06:05:11.567Z,74.92
2023-04-02T06:07:52.238Z,74.82
2023-04-02T06:10:25.138Z,74.99
2023-04-02T06:12:56.174Z,74.76
2023-04-02T06:15:24.539Z,74.68
2023-04-02T06:18:09.155Z,74.59
2023-04-02T06:20:36.079Z,74.48
2023-04-02T06:23:10.067Z,74.45
2023-04-02T06:25:46.407Z,74.71
2023-04-02T06:28:17.487Z,74.32
2023-04-02T06:30:44.475Z,74.33
2023-04-02T06:33:15.700Z,74.20
2023-04-02T06:35:46.525Z,74.16
2023-04-02T06:38:20.622Z,74.08
2023-04-02T06:40:52.693Z,74.01
2023-04-02T06:43:36.478Z,74.34
2023-04-02T06:46:10.073Z,73.86
2023-04-02T06:48:38.531Z,73.89
2023-04-02T06:51:11.912Z,73.75
2023-04-02T06:53:45.981Z,73.66
2023-04-02T06:56:32.051Z,73.71
2023-04-02T06:58:59.490Z,73.77
2023-04-02T07:01:30.148Z,73.59
2023-04-02T07:03:57.744Z,73.62
2023-04-02T07:06:25.072Z,73.20
2023-04-02T07:08:51.770Z,73.46
2023-04-02T07:11:22.039Z,73.33
2023-04-02T07:13:50.034Z,73.37
2023-04-02T07:16:22.021Z,73.20
2023-04-02T07:18:49.635Z,73.17
2023-04-02T07:21:16.881Z,73.27
2023-04-02T07:23:43.516Z,73.06
2023-04-02T07:26:16.044Z,72.90
2023-04-02T07:28:43.159Z,73.03
2023-04-02T07:31:16.885Z,72.73
2023-04-02T07:33:44.082Z,72.47
2023-04-02T07:36:16.558Z,72.29
2023-04-02T07:38:43.822Z,72.36
2023-04-02T07:41:11.643Z,72.38
2023-04-02T07:43:39.236Z,72.37
2023-04-02T07:46:06.842Z,72.08
2023-04-02T07:48:33.719Z,72.10
2023-04-02T07:51:03.211Z,71.56
2023-04-02T07:53:36.009Z,71.53
2023-04-02T07:56:04.101Z,71.38
2023-04-02T07:58:32.112Z,71.16
2023-04-02T08:01:01.822Z,70.71
2023-04-02T08:03:29.110Z,70.68
2023-04-02T08:05:58.209Z,70.62
2023-04-02T08:08:26.364Z,70.23
2023-04-02T08:10:53.121Z,70.13
2023-04-02T08:13:21.161Z,69.89
2023-04-02T08:15:48.441Z,70.03
2023-04-02T08:18:15.360Z,69.74
2023-04-02T08:20:42.305Z,69.66
2023-04-02T08:23:21.105Z,69.72
2023-04-02T08:25:48.314Z,69.67
2023-04-02T08:28:15.089Z,69.64
2023-04-02T08:30:42.414Z,69.54
2023-04-02T08:33:09.129Z,69.70
2023-04-02T08:35:35.990Z,69.76
2023-04-02T08:38:03.427Z,69.85
2023-04-02T08:40:38.996Z,69.70
2023-04-02T08:43:13.303Z,69.65
2023-04-02T08:46:04.742Z,69.36
2023-04-02T08:48:33.896Z,69.40
2023-04-02T08:51:03.194Z,69.30
2023-04-02T08:53:35.878Z,69.17
2023-04-02T08:56:19.898Z,69.04
2023-04-02T08:58:56.316Z,68.91
2023-04-02T09:01:31.504Z,68.85
2023-04-02T09:03:59.790Z,68.85
2023-04-02T09:06:29.305Z,68.66
2023-04-02T09:08:58.519Z,68.56
2023-04-02T09:11:30.709Z,68.20
2023-04-02T09:14:00.355Z,68.11
2023-04-02T09:16:45.706Z,67.88
2023-04-02T09:19:19.173Z,67.73
2023-04-02T09:22:17.827Z,67.66
2023-04-02T09:24:44.708Z,67.58
2023-04-02T09:27:20.131Z,67.18
2023-04-02T09:29:49.845Z,67.38
2023-04-02T09:32:44.504Z,67.29
2023-04-02T09:35:26.115Z,67.33
2023-04-02T09:38:23.537Z,67.07
2023-04-02T09:41:03.980Z,67.14
2023-04-02T09:43:36.523Z,67.21
2023-04-02T09:46:05.084Z,67.18
2023-04-02T09:48:39.698Z,66.98
2023-04-02T09:51:08.323Z,67.15
2023-04-02T09:53:39.889Z,66.90
2023-04-02T09:56:28.630Z,67.19
2023-04-02T09:59:05.573Z,67.02
2023-04-02T10:01:48.186Z,67.18
2023-04-02T10:04:39.311Z,67.12
2023-04-02T10:07:07.270Z,67.15
2023-04-02T10:09:36.821Z,67.15
2023-04-02T10:12:07.793Z,67.55
2023-04-02T10:14:43.671Z,67.97
2023-04-02T10:17:28.230Z,67.90
2023-04-02T10:20:01.210Z,67.94
2023-04-02T10:22:28.417Z,67.54
2023-04-02T10:24:55.563Z,67.70
2023-04-02T10:27:42.582Z,67.73
2023-04-02T10:30:34.407Z,67.57
2023-04-02T10:33:08.905Z,67.99
2023-04-02T10:35:59.857Z,67.89
2023-04-02T10:38:35.700Z,67.97
2023-04-02T10:41:21.274Z,68.09
2023-04-02T10:44:18.937Z,67.97
2023-04-02T10:46:55.044Z,67.86
2023-04-02T10:49:33.981Z,68.02
2023-04-02T10:52:13.752Z,68.03
2023-04-02T10:54:51.587Z,68.01
2023-04-02T10:57:30.990Z,68.11
2023-04-02T11:00:10.793Z,68.11
2023-04-02T11:02:46.944Z,67.94
2023-04-02T11:05:23.926Z,67.89
2023-04-02T11:07:59.161Z,67.80
2023-04-02T11:10:30.185Z,67.79
2023-04-02T11:13:03.514Z,67.99
2023-04-02T11:15:31.202Z,67.97
2023-04-02T11:17:58.342Z,67.96
2023-04-02T11:20:48.251Z,67.78
2023-04-02T11:23:19.240Z,67.64
2023-04-02T11:25:47.891Z,67.34
2023-04-02T11:28:19.502Z,67.68
2023-04-02T11:30:48.980Z,67.81
2023-04-02T11:33:44.610Z,67.69
2023-04-02T11:36:49.749Z,67.60
2023-04-02T11:39:47.211Z,67.52
2023-04-02T11:42:19.812Z,67.25
2023-04-02T11:44:46.880Z,67.14
2023-04-02T11:47:16.613Z,67.21
2023-04-02T11:49:55.834Z,66.84
2023-04-02T11:52:42.892Z,66.62
2023-04-02T11:55:24.501Z,66.54
2023-04-02T11:58:11.456Z,66.38
2023-04-02T12:01:18.488Z,66.13
2023-04-02T12:04:01.944Z,66.01
2023-04-02T12:07:17.629Z,66.58
2023-04-02T12:09:49.775Z,66.28
2023-04-02T12:12:27.164Z,65.90
2023-04-02T12:14:57.546Z,65.65
2023-04-02T12:17:34.153Z,65.43
2023-04-02T12:20:08.450Z,65.09
2023-04-02T12:22:47.707Z,64.72
2023-04-02T12:25:32.588Z,64.33
2023-04-02T12:28:18.111Z,64.16
2023-04-02T12:30:48.816Z,64.24
2023-04-02T12:33:15.707Z,64.11
2023-04-02T12:35:44.019Z,63.56
2023-04-02T12:38:45.047Z,63.39
2023-04-02T12:41:21.632Z,62.77
2023-04-02T12:44:00.553Z,62.45
2023-04-02T12:46:28.784Z,62.38
2023-04-02T12:49:04.368Z,62.05
2023-04-02T12:51:31.189Z,62.47
2023-04-02T12:53:58.292Z,62.41
2023-04-02T12:56:25.336Z,62.37
2023-04-02T12:59:01.521Z,62.36
2023-04-02T13:01:32.072Z,62.49
2023-04-02T13:04:12.517Z,62.42
2023-04-02T13:06:50.147Z,62.61
2023-04-02T13:09:47.764Z,62.83
2023-04-02T13:12:25.259Z,62.88
2023-04-02T13:15:03.828Z,62.94
2023-04-02T13:17:41.243Z,62.97
2023-04-02T13:20:29.880Z,63.08
2023-04-02T13:22:57.652Z,63.13
2023-04-02T13:25:35.448Z,63.08
2023-04-02T13:28:02.836Z,63.03
2023-04-02T13:30:29.589Z,63.14
2023-04-02T13:32:56.898Z,63.05
2023-04-02T13:35:23.795Z,63.70
2023-04-02T13:37:50.477Z,64.02
2023-04-02T13:40:19.308Z,65.27
2023-04-02T13:42:47.607Z,66.06
2023-04-02T13:45:38.263Z,66.73
2023-04-02T13:48:06.409Z,67.42
2023-04-02T13:50:35.298Z,67.48
2023-04-02T13:53:10.257Z,68.28
2023-04-02T13:55:40.698Z,68.32
2023-04-02T13:58:07.465Z,68.33
2023-04-02T14:00:38.036Z,68.08
2023-04-02T14:03:25.469Z,67.82
2023-04-02T14:05:58.420Z,67.71
2023-04-02T14:08:32.869Z,67.67
2023-04-02T14:11:11.811Z,67.67
2023-04-02T14:13:53.807Z,67.54
2023-04-02T14:16:23.387Z,67.68
2023-04-02T14:19:18.188Z,67.29
2023-04-02T14:21:51.165Z,67.17
2023-04-02T14:24:34.730Z,66.96
2023-04-02T14:27:19.803Z,67.19
2023-04-02T14:29:52.851Z,66.89
2023-04-02T14:32:34.853Z,67.13
2023-04-02T14:35:24.196Z,66.99
2023-04-02T14:38:14.068Z,67.15
2023-04-02T14:41:45.394Z,67.44
2023-04-02T14:44:14.047Z,67.28
2023-04-02T14:46:41.987Z,67.29
2023-04-02T14:49:25.021Z,67.52
2023-04-02T14:51:53.358Z,67.79
2023-04-02T14:54:34.573Z,67.78
2023-04-02T14:57:17.015Z,67.83
2023-04-02T14:59:56.975Z,67.84
2023-04-02T15:02:49.167Z,67.72
2023-04-02T15:05:24.632Z,67.40
2023-04-02T15:08:01.563Z,67.44
2023-04-02T15:10:34.702Z,67.37
2023-04-02T15:13:08.582Z,67.42
2023-04-02T15:15:58.977Z,67.17
2023-04-02T15:18:25.774Z,67.20
2023-04-02T15:21:01.622Z,67.35
2023-04-02T15:24:03.918Z,67.70
2023-04-02T15:26:53.108Z,67.79
2023-04-02T15:29:44.292Z,68.13
2023-04-02T15:32:32.377Z,67.91
2023-04-02T15:35:20.795Z,67.54
2023-04-02T15:38:11.920Z,67.35
2023-04-02T15:40:44.116Z,67.19
2023-04-02T15:43:25.988Z,67.14
2023-04-02T15:46:18.871Z,66.91
2023-04-02T15:49:09.876Z,66.68
2023-04-02T15:51:56.861Z,66.69
2023-04-02T15:54:41.192Z,66.95
2023-04-02T15:57:45.733Z,67.04
2023-04-02T16:00:24.422Z,67.05
2023-04-02T16:02:52.319Z,67.01
2023-04-02T16:05:51.336Z,66.95
2023-04-02T16:08:53.085Z,67.06
2023-04-02T16:11:20.921Z,67.02
2023-04-02T16:13:47.528Z,66.80
2023-04-02T16:16:34.898Z,66.66
2023-04-02T16:19:22.834Z,66.70
2023-04-02T16:22:20.533Z,66.53
2023-04-02T16:24:50.379Z,66.83
2023-04-02T16:27:24.912Z,66.98
2023-04-02T16:30:08.549Z,67.08
2023-04-02T16:33:03.393Z,67.35
2023-04-02T16:35:43.109Z,67.54
2023-04-02T16:38:38.168Z,67.59
2023-04-02T16:41:13.630Z,67.96
2023-04-02T16:44:02.062Z,68.16
2023-04-02T16:46:43.316Z,68.60
2023-04-02T16:49:36.316Z,68.67
2023-04-02T16:52:02.970Z,68.74
2023-04-02T16:54:46.779Z,68.96
2023-04-02T16:57:25.054Z,68.73
2023-04-02T16:59:54.907Z,69.03
2023-04-02T17:02:31.431Z,69.15
2023-04-02T17:05:32.868Z,69.42
2023-04-02T17:08:47.216Z,69.45
2023-04-02T17:11:23.647Z,69.65
2023-04-02T17:14:06.420Z,69.90
2023-04-02T17:16:43.297Z,69.75
2023-04-02T17:19:15.214Z,70.08
2023-04-02T17:21:47.761Z,70.25
2023-04-02T17:24:17.358Z,70.38
2023-04-02T17:26:48.708Z,70.64
2023-04-02T17:29:21.845Z,70.84
2023-04-02T17:31:50.506Z,70.72
2023-04-02T17:34:20.916Z,70.78
2023-04-02T17:37:22.930Z,71.04
2023-04-02T17:40:10.721Z,71.00
2023-04-02T17:42:46.532Z,71.25
2023-04-02T17:45:29.177Z,71.20
2023-04-02T17:48:08.381Z,71.29
2023-04-02T17:50:54.480Z,71.35
2023-04-02T17:53:21.993Z,71.77
2023-04-02T17:55:54.485Z,71.85
2023-04-02T17:58:30.336Z,71.92
2023-04-02T18:01:23.366Z,71.87
2023-04-02T18:04:41.804Z,71.83
2023-04-02T18:07:45.412Z,71.80
2023-04-02T18:10:33.580Z,71.70
2023-04-02T18:13:12.588Z,71.80
2023-04-02T18:15:48.708Z,71.79
2023-04-02T18:18:48.527Z,71.70
2023-04-02T18:21:19.064Z,71.90
2023-04-02T18:23:54.560Z,71.99
2023-04-02T18:26:42.261Z,71.99
2023-04-02T18:29:21.038Z,72.15
2023-04-02T18:32:17.553Z,72.30
2023-04-02T18:34:44.921Z,72.33
2023-04-02T18:37:33.186Z,72.50
2023-04-02T18:40:26.157Z,72.55
2023-04-02T18:43:13.566Z,72.65
2023-04-02T18:45:55.727Z,72.96
2023-04-02T18:48:41.197Z,72.91
2023-04-02T18:51:22.165Z,73.04
2023-04-02T18:54:09.047Z,73.01
2023-04-02T18:56:40.633Z,73.29
2023-04-02T18:59:19.424Z,73.41
2023-04-02T19:01:52.305Z,73.49
2023-04-02T19:04:34.914Z,73.66
2023-04-02T19:07:11.714Z,73.73
2023-04-02T19:09:47.869Z,73.80
2023-04-02T19:12:20.305Z,74.17
2023-04-02T19:14:50.948Z,74.15
2023-04-02T19:17:30.938Z,74.05
2023-04-02T19:20:33.097Z,74.15
2023-04-02T19:23:30.862Z,74.23
2023-04-02T19:26:06.303Z,74.49
2023-04-02T19:28:42.014Z,74.76
2023-04-02T19:31:24.933Z,74.82
2023-04-02T19:34:25.419Z,74.68
2023-04-02T19:37:00.861Z,74.55
2023-04-02T19:39:58.750Z,74.46
2023-04-02T19:42:41.815Z,74.30
2023-04-02T19:45:43.342Z,74.32
2023-04-02T19:48:21.947Z,74.14
2023-04-02T19:50:49.617Z,74.01
2023-04-02T19:53:17.590Z,74.21
2023-04-02T19:55:45.595Z,74.21
2023-04-02T19:58:33.518Z,74.25
2023-04-02T20:01:01.073Z,74.23
2023-04-02T20:03:28.211Z,74.14
2023-04-02T20:05:55.047Z,74.30
2023-04-02T20:08:21.903Z,73.97
2023-04-02T20:10:48.761Z,74.34
2023-04-02T20:13:15.482Z,74.20
2023-04-02T20:15:42.184Z,73.92
2023-04-02T20:18:10.624Z,73.92
2023-04-02T20:20:39.291Z,73.82
2023-04-02T20:23:06.472Z,73.75
2023-04-02T20:25:33.070Z,73.79
2023-04-02T20:28:01.086Z,73.73
2023-04-02T20:30:27.859Z,73.78
2023-04-02T20:32:55.706Z,73.73
2023-04-02T20:35:22.473Z,73.74
2023-04-02T20:37:49.346Z,73.78
2023-04-02T20:40:16.089Z,73.96
2023-04-02T20:42:42.796Z,74.07
2023-04-02T20:45:10.148Z,74.04
2023-04-02T20:47:36.867Z,74.13
2023-04-02T20:50:03.753Z,74.10
2023-04-02T20:52:32.603Z,74.10
2023-04-02T20:54:59.215Z,74.06
2023-04-02T20:57:27.674Z,74.18
2023-04-02T20:59:54.871Z,73.91
2023-04-02T21:02:21.708Z,74.17
2023-04-02T21:04:48.401Z,74.40
2023-04-02T21:07:15.644Z,74.19
2023-04-02T21:09:42.256Z,74.23
2023-04-02T21:12:08.929Z,74.15
2023-04-02T21:14:39.063Z,74.09
2023-04-02T21:17:07.429Z,74.42
2023-04-02T21:19:35.297Z,74.48
2023-04-02T21:22:02.719Z,74.45
2023-04-02T21:24:29.550Z,74.56
2023-04-02T21:26:56.249Z,74.48
2023-04-02T21:29:22.931Z,74.53
2023-04-02T21:31:50.456Z,74.54
2023-04-02T21:34:17.182Z,74.81
2023-04-02T21:36:46.358Z,74.64
2023-04-02T21:39:18.626Z,74.85
2023-04-02T21:41:46.859Z,75.01
2023-04-02T21:44:15.788Z,74.89
2023-04-02T21:46:43.119Z,74.91
2023-04-02T21:49:12.648Z,74.92
2023-04-02T21:51:41.251Z,74.96
2023-04-02T21:54:08.516Z,75.04
2023-04-02T21:56:37.725Z,75.04
2023-04-02T21:59:06.369Z,75.22
2023-04-02T22:01:36.154Z,75.21
2023-04-02T22:04:04.892Z,75.37
2023-04-02T22:06:35.858Z,75.34
2023-04-02T22:09:06.451Z,75.18
2023-04-02T22:11:36.814Z,75.07
2023-04-02T22:14:04.316Z,75.12
2023-04-02T22:16:32.534Z,75.20
2023-04-02T22:19:02.132Z,75.35
2023-04-02T22:21:30.539Z,75.31
2023-04-02T22:24:01.043Z,75.38
2023-04-02T22:26:28.261Z,75.35
2023-04-02T22:28:54.910Z,75.31
2023-04-02T22:31:24.398Z,75.31
2023-04-02T22:33:52.591Z,75.25
2023-04-02T22:36:22.026Z,75.23
2023-04-02T22:38:49.418Z,75.28
2023-04-02T22:41:26.338Z,75.29
2023-04-02T22:43:54.057Z,75.23
2023-04-02T22:46:21.796Z,75.35
2023-04-02T22:48:49.581Z,75.38
2023-04-02T22:51:18.877Z,75.33
2023-04-02T22:53:46.374Z,75.51
2023-04-02T22:56:19.017Z,75.45
2023-04-02T22:58:46.320Z,75.52
2023-04-02T23:01:25.054Z,75.45
2023-04-02T23:03:54.669Z,75.57
2023-04-02T23:06:22.063Z,75.44
2023-04-02T23:08:49.067Z,75.45
2023-04-02T23:11:22.112Z,75.58
2023-04-02T23:13:50.888Z,75.35
2023-04-02T23:16:17.678Z,75.61
2023-04-02T23:18:47.958Z,75.61
2023-04-02T23:21:16.466Z,75.33
2023-04-02T23:23:43.863Z,75.58
2023-04-02T23:26:15.086Z,75.65
2023-04-02T23:28:42.420Z,75.63
2023-04-02T23:31:14.473Z,75.59
2023-04-02T23:33:41.363Z,75.60
2023-04-02T23:36:19.184Z,75.91
2023-04-02T23:38:45.830Z,75.67
2023-04-02T23:41:16.615Z,75.78
2023-04-02T23:43:44.097Z,75.75
2023-04-02T23:46:10.997Z,75.73
2023-04-02T23:48:37.868Z,75.94
2023-04-02T23:51:05.089Z,76.01
2023-04-02T23:53:33.395Z,75.92
2023-04-02T23:56:00.432Z,76.01
2023-04-02T23:58:27.050Z,75.94
